createdAt,value
2018-05-23T00:00:18.395Z,0.00
2018-05-23T00:01:18.406Z,0.00
2018-05-23T00:02:18.424Z,0.00
2018-05-23T00:03:39.443Z,0.00
2018-05-23T00:04:18.445Z,0.00
2018-05-23T00:05:18.467Z,0.00
2018-05-23T00:06:18.470Z,0.00
2018-05-23T00:07:18.489Z,0.00
2018-05-23T00:08:18.488Z,0.00
2018-05-23T00:09:39.520Z,0.00
2018-05-23T00:10:18.522Z,0.00
2018-05-23T00:11:18.519Z,0.00
2018-05-23T00:12:18.535Z,0.00
2018-05-23T00:13:18.548Z,0.00
2018-05-23T00:14:18.557Z,0.00
2018-05-23T00:15:39.585Z,0.00
2018-05-23T00:16:18.578Z,0.00
2018-05-23T00:17:18.592Z,0.00
2018-05-23T00:18:18.606Z,0.00
2018-05-23T00:19:18.618Z,0.00
2018-05-23T00:20:18.635Z,0.00
2018-05-23T00:21:39.653Z,0.00
2018-05-23T00:22:18.647Z,0.00
2018-05-23T00:23:18.661Z,0.00
2018-05-23T00:24:18.670Z,0.00
2018-05-23T00:25:18.694Z,0.00
2018-05-23T00:26:18.699Z,0.00
2018-05-23T00:27:39.720Z,0.00
2018-05-23T00:28:18.720Z,0.00
2018-05-23T00:29:18.732Z,0.00
2018-05-23T00:30:18.747Z,0.00
2018-05-23T00:31:18.770Z,0.00
2018-05-23T00:32:18.763Z,0.00
2018-05-23T00:33:39.792Z,0.00
2018-05-23T00:34:18.798Z,0.00
2018-05-23T00:35:18.816Z,0.00
2018-05-23T00:36:18.897Z,0.00
2018-05-23T00:37:18.830Z,0.00
2018-05-23T00:38:18.840Z,0.00
2018-05-23T00:39:39.867Z,0.00
2018-05-23T00:40:18.866Z,0.00
2018-05-23T00:41:18.878Z,0.00
2018-05-23T00:42:18.882Z,0.00
2018-05-23T00:43:18.892Z,0.00
2018-05-23T00:44:18.927Z,0.00
2018-05-23T00:45:39.942Z,0.00
2018-05-23T00:46:18.930Z,0.00
2018-05-23T00:47:18.943Z,0.00
2018-05-23T00:48:18.964Z,0.00
2018-05-23T00:49:18.975Z,0.00
2018-05-23T00:50:19.051Z,0.00
2018-05-23T00:51:39.998Z,0.00
2018-05-23T00:52:19.011Z,0.00
2018-05-23T00:53:19.009Z,0.00
2018-05-23T00:54:19.020Z,0.00
2018-05-23T00:55:19.034Z,0.00
2018-05-23T00:56:19.043Z,0.00
2018-05-23T00:57:40.067Z,0.00
2018-05-23T00:58:19.080Z,0.00
2018-05-23T00:59:19.098Z,0.00
2018-05-23T01:00:19.110Z,0.00
2018-05-23T01:01:19.101Z,0.00
2018-05-23T01:02:19.127Z,0.00
2018-05-23T01:03:40.161Z,0.00
2018-05-23T01:04:19.146Z,0.00
2018-05-23T01:05:19.174Z,0.00
2018-05-23T01:06:19.162Z,0.00
2018-05-23T01:07:19.172Z,0.00
2018-05-23T01:08:19.191Z,0.00
2018-05-23T01:09:40.209Z,0.00
2018-05-23T01:10:19.221Z,0.00
2018-05-23T01:11:19.224Z,0.00
2018-05-23T01:12:19.239Z,0.00
2018-05-23T01:13:19.244Z,0.00
2018-05-23T01:14:19.263Z,0.00
2018-05-23T01:15:40.281Z,0.00
2018-05-23T01:16:19.281Z,0.00
2018-05-23T01:17:19.295Z,0.00
2018-05-23T01:18:19.311Z,0.00
2018-05-23T01:19:19.307Z,0.00
2018-05-23T01:20:19.323Z,0.00
2018-05-23T01:21:40.353Z,0.00
2018-05-23T01:22:19.346Z,0.00
2018-05-23T01:23:19.359Z,0.00
2018-05-23T01:24:19.394Z,0.00
2018-05-23T01:25:19.379Z,0.00
2018-05-23T01:26:19.390Z,0.00
2018-05-23T01:27:40.416Z,0.00
2018-05-23T01:28:19.421Z,0.00
2018-05-23T01:29:19.424Z,0.00
2018-05-23T01:30:19.453Z,0.00
2018-05-23T01:31:19.462Z,0.00
2018-05-23T01:32:19.462Z,0.00
2018-05-23T01:33:40.484Z,0.00
2018-05-23T01:34:19.477Z,0.00
2018-05-23T01:35:19.499Z,0.00
2018-05-23T01:36:19.508Z,0.00
2018-05-23T01:37:19.515Z,0.00
2018-05-23T01:38:19.544Z,0.00
2018-05-23T01:39:40.549Z,0.00
2018-05-23T01:40:19.567Z,0.00
2018-05-23T01:41:19.569Z,0.00
2018-05-23T01:42:19.570Z,0.00
2018-05-23T01:43:19.591Z,0.00
2018-05-23T01:44:19.613Z,0.00
2018-05-23T01:45:40.624Z,0.00
2018-05-23T01:46:19.629Z,0.00
2018-05-23T01:47:19.639Z,0.00
2018-05-23T01:48:19.656Z,0.00
2018-05-23T01:49:19.657Z,0.00
2018-05-23T01:50:19.671Z,0.00
2018-05-23T01:51:40.687Z,0.00
2018-05-23T01:52:19.682Z,0.00
2018-05-23T01:53:19.699Z,0.00
2018-05-23T01:54:19.710Z,0.00
2018-05-23T01:55:19.718Z,0.00
2018-05-23T01:56:19.739Z,0.00
2018-05-23T01:57:40.759Z,0.00
2018-05-23T01:58:19.763Z,0.00
2018-05-23T01:59:19.772Z,0.00
2018-05-23T02:00:19.773Z,0.00
2018-05-23T02:01:19.791Z,0.00
2018-05-23T02:02:19.792Z,0.00
2018-05-23T02:03:40.819Z,0.00
2018-05-23T02:04:19.833Z,0.00
2018-05-23T02:05:19.837Z,0.00
2018-05-23T02:06:19.843Z,0.00
2018-05-23T02:07:19.859Z,0.00
2018-05-23T02:08:19.869Z,0.00
2018-05-23T02:09:40.895Z,0.00
2018-05-23T02:10:19.900Z,0.00
2018-05-23T02:11:19.909Z,0.00
2018-05-23T02:12:19.921Z,0.00
2018-05-23T02:13:19.923Z,0.00
2018-05-23T02:14:19.939Z,0.00
2018-05-23T02:15:40.953Z,0.00
2018-05-23T02:16:19.971Z,0.00
2018-05-23T02:17:19.978Z,0.00
2018-05-23T02:18:19.983Z,0.00
2018-05-23T02:19:19.995Z,0.00
2018-05-23T02:20:20.004Z,0.00
2018-05-23T02:21:41.030Z,0.00
2018-05-23T02:22:20.034Z,0.00
2018-05-23T02:23:20.050Z,0.00
2018-05-23T02:24:20.055Z,0.00
2018-05-23T02:25:20.055Z,0.00
2018-05-23T02:26:20.066Z,0.00
2018-05-23T02:27:41.097Z,0.00
2018-05-23T02:28:20.097Z,0.00
2018-05-23T02:29:20.107Z,0.00
2018-05-23T02:30:20.113Z,0.00
2018-05-23T02:31:20.133Z,0.00
2018-05-23T02:32:20.141Z,0.00
2018-05-23T02:33:41.163Z,0.00
2018-05-23T02:34:20.176Z,0.00
2018-05-23T02:35:20.188Z,0.00
2018-05-23T02:36:20.194Z,0.00
2018-05-23T02:37:20.201Z,0.00
2018-05-23T02:38:20.205Z,0.00
2018-05-23T02:39:41.230Z,0.00
2018-05-23T02:40:20.230Z,0.00
2018-05-23T02:41:20.247Z,0.00
2018-05-23T02:42:20.251Z,0.00
2018-05-23T02:43:20.275Z,0.00
2018-05-23T02:44:20.268Z,0.00
2018-05-23T02:45:41.305Z,0.00
2018-05-23T02:46:20.289Z,0.00
2018-05-23T02:47:20.306Z,0.00
2018-05-23T02:48:20.322Z,0.00
2018-05-23T02:49:20.332Z,0.00
2018-05-23T02:50:20.342Z,0.00
2018-05-23T02:51:41.355Z,0.00
2018-05-23T02:52:20.362Z,0.00
2018-05-23T02:53:20.379Z,0.00
2018-05-23T02:54:20.379Z,0.00
2018-05-23T02:55:20.408Z,0.00
2018-05-23T02:56:20.403Z,0.00
2018-05-23T02:57:41.433Z,0.00
2018-05-23T02:58:20.424Z,0.00
2018-05-23T02:59:20.440Z,0.00
2018-05-23T03:00:20.455Z,0.00
2018-05-23T03:01:20.464Z,0.00
2018-05-23T03:02:20.472Z,0.00
2018-05-23T03:03:41.494Z,0.00
2018-05-23T03:04:20.492Z,0.00
2018-05-23T03:05:20.504Z,0.00
2018-05-23T03:06:20.526Z,0.00
2018-05-23T03:07:20.537Z,0.00
2018-05-23T03:08:20.553Z,0.00
2018-05-23T03:09:41.572Z,0.00
2018-05-23T03:10:20.570Z,0.00
2018-05-23T03:11:20.586Z,0.00
2018-05-23T03:12:20.592Z,0.00
2018-05-23T03:13:20.591Z,0.00
2018-05-23T03:14:20.607Z,0.00
2018-05-23T03:15:41.633Z,0.00
2018-05-23T03:16:20.632Z,0.00
2018-05-23T03:17:20.653Z,0.00
2018-05-23T03:18:20.654Z,0.00
2018-05-23T03:19:20.663Z,0.00
2018-05-23T03:20:20.678Z,0.00
2018-05-23T03:21:41.698Z,0.00
2018-05-23T03:22:20.697Z,0.00
2018-05-23T03:23:20.704Z,0.00
2018-05-23T03:24:20.719Z,0.00
2018-05-23T03:25:20.735Z,0.00
2018-05-23T03:26:20.747Z,0.00
2018-05-23T03:27:41.766Z,0.00
2018-05-23T03:28:20.766Z,0.00
2018-05-23T03:29:20.782Z,0.00
2018-05-23T03:30:20.791Z,0.00
2018-05-23T03:31:20.793Z,0.00
2018-05-23T03:32:20.805Z,0.00
2018-05-23T03:33:41.828Z,0.00
2018-05-23T03:34:20.826Z,0.00
2018-05-23T03:35:20.842Z,0.00
2018-05-23T03:36:20.852Z,0.00
2018-05-23T03:37:20.861Z,0.00
2018-05-23T03:38:20.871Z,0.00
2018-05-23T03:39:41.892Z,5.63
2018-05-23T03:40:20.898Z,5.63
2018-05-23T03:41:20.930Z,5.63
2018-05-23T03:42:20.919Z,5.63
2018-05-23T03:43:20.922Z,5.63
2018-05-23T03:44:20.946Z,5.63
2018-05-23T03:45:41.967Z,5.63
2018-05-23T03:46:20.952Z,5.63
2018-05-23T03:47:20.982Z,5.63
2018-05-23T03:48:20.994Z,5.63
2018-05-23T03:49:20.999Z,11.25
2018-05-23T03:50:21.001Z,11.25
2018-05-23T03:51:42.029Z,11.25
2018-05-23T03:52:21.027Z,11.25
2018-05-23T03:53:21.038Z,11.25
2018-05-23T03:54:21.047Z,11.25
2018-05-23T03:55:21.092Z,11.25
2018-05-23T03:56:21.071Z,11.25
2018-05-23T03:57:42.109Z,11.25
2018-05-23T03:58:21.094Z,11.25
2018-05-23T03:59:21.106Z,16.88
2018-05-23T04:00:21.110Z,16.88
2018-05-23T04:01:21.129Z,16.88
2018-05-23T04:02:21.132Z,16.88
2018-05-23T04:03:42.161Z,16.88
2018-05-23T04:04:21.164Z,16.88
2018-05-23T04:05:21.173Z,16.88
2018-05-23T04:06:21.189Z,16.88
2018-05-23T04:07:21.191Z,16.88
2018-05-23T04:08:21.206Z,16.88
2018-05-23T04:09:42.292Z,16.88
2018-05-23T04:10:21.231Z,22.50
2018-05-23T04:11:21.243Z,22.50
2018-05-23T04:12:21.242Z,22.50
2018-05-23T04:13:21.255Z,22.50
2018-05-23T04:14:21.289Z,22.50
2018-05-23T04:15:42.295Z,22.50
2018-05-23T04:16:21.295Z,22.50
2018-05-23T04:17:21.307Z,22.50
2018-05-23T04:18:21.310Z,22.50
2018-05-23T04:19:21.614Z,22.50
2018-05-23T04:20:21.335Z,22.50
2018-05-23T04:21:42.643Z,28.13
2018-05-23T04:22:21.358Z,28.13
2018-05-23T04:23:21.371Z,28.13
2018-05-23T04:24:21.380Z,28.13
2018-05-23T04:25:21.649Z,28.13
2018-05-23T04:26:21.398Z,33.75
2018-05-23T04:27:42.426Z,33.75
2018-05-23T04:28:22.131Z,33.75
2018-05-23T04:29:21.440Z,39.38
2018-05-23T04:30:21.451Z,39.38
2018-05-23T04:31:21.465Z,45.00
2018-05-23T04:32:21.467Z,45.00
2018-05-23T04:33:42.488Z,45.00
2018-05-23T04:34:21.502Z,50.63
2018-05-23T04:35:21.504Z,50.63
2018-05-23T04:36:21.507Z,50.63
2018-05-23T04:37:21.531Z,50.63
2018-05-23T04:38:21.543Z,50.63
2018-05-23T04:39:42.551Z,56.25
2018-05-23T04:40:21.562Z,56.25
2018-05-23T04:41:21.571Z,56.25
2018-05-23T04:42:21.575Z,61.88
2018-05-23T04:43:21.592Z,61.88
2018-05-23T04:44:21.595Z,61.88
2018-05-23T04:45:42.619Z,61.88
2018-05-23T04:46:21.637Z,61.88
2018-05-23T04:47:21.655Z,61.88
2018-05-23T04:48:21.643Z,67.50
2018-05-23T04:49:21.654Z,67.50
2018-05-23T04:50:21.672Z,67.50
2018-05-23T04:51:42.693Z,73.13
2018-05-23T04:52:21.687Z,73.13
2018-05-23T04:53:21.714Z,73.13
2018-05-23T04:54:21.718Z,78.75
2018-05-23T04:55:21.744Z,78.75
2018-05-23T04:56:21.740Z,84.38
2018-05-23T04:57:42.763Z,84.38
2018-05-23T04:58:21.764Z,84.38
2018-05-23T04:59:21.774Z,84.38
2018-05-23T05:00:21.788Z,84.38
2018-05-23T05:01:21.800Z,84.38
2018-05-23T05:02:21.805Z,84.38
2018-05-23T05:03:42.833Z,84.38
2018-05-23T05:04:21.824Z,84.38
2018-05-23T05:05:21.834Z,84.38
2018-05-23T05:06:21.849Z,78.75
2018-05-23T05:07:21.866Z,78.75
2018-05-23T05:08:21.876Z,78.75
2018-05-23T05:09:42.895Z,73.13
2018-05-23T05:10:21.891Z,73.13
2018-05-23T05:11:21.915Z,73.13
2018-05-23T05:12:21.918Z,73.13
2018-05-23T05:13:21.933Z,73.13
2018-05-23T05:14:21.951Z,73.13
2018-05-23T05:15:42.977Z,67.50
2018-05-23T05:16:21.970Z,67.50
2018-05-23T05:17:21.975Z,67.50
2018-05-23T05:18:21.988Z,67.50
2018-05-23T05:19:22.000Z,67.50
2018-05-23T05:20:22.007Z,67.50
2018-05-23T05:21:43.039Z,67.50
2018-05-23T05:22:22.040Z,67.50
2018-05-23T05:23:22.057Z,61.88
2018-05-23T05:24:22.050Z,61.88
2018-05-23T05:25:22.073Z,61.88
2018-05-23T05:26:22.079Z,61.88
2018-05-23T05:27:43.110Z,61.88
2018-05-23T05:28:22.110Z,56.25
2018-05-23T05:29:22.117Z,56.25
2018-05-23T05:30:22.132Z,56.25
2018-05-23T05:31:22.149Z,56.25
2018-05-23T05:32:22.144Z,56.25
2018-05-23T05:33:43.177Z,56.25
2018-05-23T05:34:22.187Z,56.25
2018-05-23T05:35:22.180Z,56.25
2018-05-23T05:36:22.190Z,56.25
2018-05-23T05:37:22.200Z,61.88
2018-05-23T05:38:22.228Z,61.88
2018-05-23T05:39:43.239Z,61.88
2018-05-23T05:40:22.245Z,61.88
2018-05-23T05:41:22.250Z,61.88
2018-05-23T05:42:22.260Z,61.88
2018-05-23T05:43:22.274Z,61.88
2018-05-23T05:44:22.285Z,61.88
2018-05-23T05:45:43.302Z,61.88
2018-05-23T05:46:22.334Z,61.88
2018-05-23T05:47:22.316Z,67.50
2018-05-23T05:48:22.331Z,67.50
2018-05-23T05:49:22.345Z,73.13
2018-05-23T05:50:22.350Z,78.75
2018-05-23T05:51:43.375Z,84.38
2018-05-23T05:52:22.380Z,90.00
2018-05-23T05:53:22.380Z,95.63
2018-05-23T05:54:22.423Z,101.25
2018-05-23T05:55:22.403Z,101.25
2018-05-23T05:56:22.423Z,101.25
2018-05-23T05:57:43.454Z,106.88
2018-05-23T05:58:22.455Z,106.88
2018-05-23T05:59:22.466Z,112.50
2018-05-23T06:00:22.470Z,112.50
2018-05-23T06:01:22.485Z,112.50
2018-05-23T06:02:22.489Z,118.13
2018-05-23T06:03:44.232Z,123.75
2018-05-23T06:04:22.536Z,123.75
2018-05-23T06:05:22.519Z,129.38
2018-05-23T06:06:22.543Z,135.00
2018-05-23T06:07:22.551Z,146.25
2018-05-23T06:08:22.599Z,157.50
2018-05-23T06:09:43.736Z,163.13
2018-05-23T06:10:22.583Z,168.75
2018-05-23T06:11:22.585Z,174.38
2018-05-23T06:12:22.601Z,168.75
2018-05-23T06:13:22.621Z,168.75
2018-05-23T06:14:22.625Z,163.13
2018-05-23T06:15:43.656Z,157.50
2018-05-23T06:16:22.650Z,157.50
2018-05-23T06:17:22.669Z,157.50
2018-05-23T06:18:22.688Z,157.50
2018-05-23T06:19:22.684Z,157.50
2018-05-23T06:20:22.729Z,157.50
2018-05-23T06:21:43.719Z,157.50
2018-05-23T06:22:22.813Z,151.88
2018-05-23T06:23:22.739Z,151.88
2018-05-23T06:24:22.748Z,157.50
2018-05-23T06:25:22.755Z,157.50
2018-05-23T06:26:22.771Z,151.88
2018-05-23T06:27:43.799Z,146.25
2018-05-23T06:28:22.792Z,140.63
2018-05-23T06:29:22.809Z,140.63
2018-05-23T06:30:22.828Z,140.63
2018-05-23T06:31:23.737Z,140.63
2018-05-23T06:32:22.838Z,140.63
2018-05-23T06:33:43.864Z,146.25
2018-05-23T06:34:22.860Z,140.63
2018-05-23T06:35:22.886Z,146.25
2018-05-23T06:36:22.891Z,146.25
2018-05-23T06:37:22.906Z,146.25
2018-05-23T06:38:22.907Z,146.25
2018-05-23T06:39:43.952Z,151.88
2018-05-23T06:40:22.929Z,157.50
2018-05-23T06:41:22.953Z,163.13
2018-05-23T06:42:22.970Z,174.38
2018-05-23T06:43:22.975Z,185.63
2018-05-23T06:44:22.980Z,191.25
2018-05-23T06:45:44.011Z,202.50
2018-05-23T06:46:23.005Z,208.13
2018-05-23T06:47:23.020Z,208.13
2018-05-23T06:48:23.023Z,202.50
2018-05-23T06:49:23.047Z,202.50
2018-05-23T06:50:23.056Z,208.13
2018-05-23T06:51:44.080Z,208.13
2018-05-23T06:52:23.079Z,208.13
2018-05-23T06:53:23.139Z,213.75
2018-05-23T06:54:23.103Z,225.00
2018-05-23T06:55:23.120Z,230.63
2018-05-23T06:56:23.125Z,230.63
2018-05-23T06:57:44.147Z,236.25
2018-05-23T06:58:23.157Z,236.25
2018-05-23T06:59:23.156Z,236.25
2018-05-23T07:00:23.176Z,236.25
2018-05-23T07:01:23.182Z,241.88
2018-05-23T07:02:23.205Z,241.88
2018-05-23T07:03:44.235Z,247.50
2018-05-23T07:04:23.221Z,247.50
2018-05-23T07:05:23.224Z,253.13
2018-05-23T07:06:23.258Z,253.13
2018-05-23T07:07:23.259Z,253.13
2018-05-23T07:08:23.272Z,253.13
2018-05-23T07:09:44.293Z,253.13
2018-05-23T07:10:23.285Z,258.75
2018-05-23T07:11:23.316Z,264.38
2018-05-23T07:12:23.321Z,270.00
2018-05-23T07:13:23.336Z,270.00
2018-05-23T07:14:23.350Z,270.00
2018-05-23T07:15:44.375Z,270.00
2018-05-23T07:16:23.363Z,264.38
2018-05-23T07:17:23.395Z,264.38
2018-05-23T07:18:23.399Z,264.38
2018-05-23T07:19:23.409Z,264.38
2018-05-23T07:20:23.421Z,270.00
2018-05-23T07:21:44.451Z,275.63
2018-05-23T07:22:23.440Z,281.25
2018-05-23T07:23:23.450Z,286.88
2018-05-23T07:24:23.461Z,292.50
2018-05-23T07:25:23.480Z,303.75
2018-05-23T07:26:23.498Z,303.75
2018-05-23T07:27:44.525Z,309.38
2018-05-23T07:28:23.519Z,309.38
2018-05-23T07:29:23.524Z,309.38
2018-05-23T07:30:23.545Z,309.38
2018-05-23T07:31:23.617Z,309.38
2018-05-23T07:32:23.562Z,303.75
2018-05-23T07:33:44.597Z,298.13
2018-05-23T07:34:23.598Z,298.13
2018-05-23T07:35:23.602Z,298.13
2018-05-23T07:36:23.627Z,292.50
2018-05-23T07:37:23.626Z,275.63
2018-05-23T07:38:23.697Z,264.38
2018-05-23T07:39:44.665Z,253.13
2018-05-23T07:40:23.669Z,253.13
2018-05-23T07:41:23.687Z,258.75
2018-05-23T07:42:23.693Z,264.38
2018-05-23T07:43:23.701Z,270.00
2018-05-23T07:44:23.722Z,281.25
2018-05-23T07:45:44.775Z,286.88
2018-05-23T07:46:23.753Z,298.13
2018-05-23T07:47:23.766Z,303.75
2018-05-23T07:48:23.768Z,315.00
2018-05-23T07:49:23.801Z,326.25
2018-05-23T07:50:23.854Z,331.88
2018-05-23T07:51:44.825Z,337.50
2018-05-23T07:52:23.830Z,343.13
2018-05-23T07:53:23.845Z,343.13
2018-05-23T07:54:23.857Z,348.75
2018-05-23T07:55:23.876Z,348.75
2018-05-23T07:56:23.870Z,348.75
2018-05-23T07:57:44.919Z,348.75
2018-05-23T07:58:23.910Z,354.38
2018-05-23T07:59:23.908Z,360.00
2018-05-23T08:00:23.938Z,365.63
2018-05-23T08:01:23.941Z,371.25
2018-05-23T08:02:23.960Z,371.25
2018-05-23T08:03:44.982Z,376.88
2018-05-23T08:04:23.994Z,376.88
2018-05-23T08:05:23.989Z,376.88
2018-05-23T08:06:24.013Z,376.88
2018-05-23T08:07:24.025Z,376.88
2018-05-23T08:08:24.039Z,376.88
2018-05-23T08:09:45.078Z,376.88
2018-05-23T08:10:24.064Z,376.88
2018-05-23T08:11:24.088Z,376.88
2018-05-23T08:12:24.099Z,371.25
2018-05-23T08:13:24.106Z,371.25
2018-05-23T08:14:24.111Z,371.25
2018-05-23T08:15:45.156Z,371.25
2018-05-23T08:16:24.149Z,365.63
2018-05-23T08:17:24.169Z,365.63
2018-05-23T08:18:24.178Z,365.63
2018-05-23T08:19:24.192Z,365.63
2018-05-23T08:20:24.202Z,365.63
2018-05-23T08:21:45.231Z,365.63
2018-05-23T08:22:24.231Z,365.63
2018-05-23T08:23:24.246Z,365.63
2018-05-23T08:24:24.351Z,365.63
2018-05-23T08:25:24.268Z,371.25
2018-05-23T08:26:24.291Z,376.88
2018-05-23T08:27:45.323Z,388.13
2018-05-23T08:28:24.307Z,399.38
2018-05-23T08:29:24.335Z,405.00
2018-05-23T08:30:24.341Z,410.63
2018-05-23T08:31:24.348Z,405.00
2018-05-23T08:32:24.371Z,399.38
2018-05-23T08:33:45.389Z,405.00
2018-05-23T08:34:24.405Z,388.13
2018-05-23T08:35:24.413Z,382.50
2018-05-23T08:36:24.462Z,382.50
2018-05-23T08:37:24.440Z,382.50
2018-05-23T08:38:24.456Z,388.13
2018-05-23T08:39:45.478Z,405.00
2018-05-23T08:40:24.479Z,416.25
2018-05-23T08:41:24.484Z,410.63
2018-05-23T08:42:24.498Z,416.25
2018-05-23T08:43:24.531Z,433.13
2018-05-23T08:44:24.525Z,427.50
2018-05-23T08:45:45.571Z,410.63
2018-05-23T08:46:24.556Z,399.38
2018-05-23T08:47:24.590Z,388.13
2018-05-23T08:48:24.590Z,360.00
2018-05-23T08:49:24.597Z,343.13
2018-05-23T08:50:24.610Z,331.88
2018-05-23T08:51:45.640Z,326.25
2018-05-23T08:52:24.646Z,309.38
2018-05-23T08:53:24.661Z,286.88
2018-05-23T08:54:24.666Z,275.63
2018-05-23T08:55:24.689Z,264.38
2018-05-23T08:56:24.698Z,253.13
2018-05-23T08:57:45.749Z,241.88
2018-05-23T08:58:24.732Z,241.88
2018-05-23T08:59:24.743Z,253.13
2018-05-23T09:00:24.758Z,275.63
2018-05-23T09:01:24.768Z,286.88
2018-05-23T09:02:24.786Z,292.50
2018-05-23T09:03:45.825Z,286.88
2018-05-23T09:04:24.818Z,286.88
2018-05-23T09:05:24.833Z,286.88
2018-05-23T09:06:24.834Z,286.88
2018-05-23T09:07:24.849Z,303.75
2018-05-23T09:08:24.880Z,331.88
2018-05-23T09:09:45.895Z,371.25
2018-05-23T09:10:24.889Z,376.88
2018-05-23T09:11:24.914Z,360.00
2018-05-23T09:12:25.045Z,354.38
2018-05-23T09:13:24.938Z,348.75
2018-05-23T09:14:24.963Z,360.00
2018-05-23T09:15:45.982Z,382.50
2018-05-23T09:16:24.985Z,416.25
2018-05-23T09:17:24.997Z,388.13
2018-05-23T09:18:25.014Z,388.13
2018-05-23T09:19:25.030Z,405.00
2018-05-23T09:20:25.039Z,393.75
2018-05-23T09:21:46.075Z,382.50
2018-05-23T09:22:25.067Z,382.50
2018-05-23T09:23:25.084Z,382.50
2018-05-23T09:24:25.099Z,376.88
2018-05-23T09:25:25.194Z,365.63
2018-05-23T09:26:25.118Z,348.75
2018-05-23T09:27:46.151Z,337.50
2018-05-23T09:28:25.154Z,309.38
2018-05-23T09:29:25.178Z,298.13
2018-05-23T09:30:25.176Z,281.25
2018-05-23T09:31:25.189Z,286.88
2018-05-23T09:32:25.208Z,303.75
2018-05-23T09:33:46.236Z,309.38
2018-05-23T09:34:25.234Z,326.25
2018-05-23T09:35:25.255Z,331.88
2018-05-23T09:36:25.268Z,320.63
2018-05-23T09:37:25.286Z,309.38
2018-05-23T09:38:25.292Z,315.00
2018-05-23T09:39:46.322Z,337.50
2018-05-23T09:40:25.322Z,371.25
2018-05-23T09:41:25.334Z,427.50
2018-05-23T09:42:25.355Z,478.13
2018-05-23T09:43:25.360Z,500.63
2018-05-23T09:44:25.395Z,517.50
2018-05-23T09:45:46.403Z,511.88
2018-05-23T09:46:25.416Z,500.63
2018-05-23T09:47:25.426Z,511.88
2018-05-23T09:48:25.435Z,489.38
2018-05-23T09:49:25.489Z,472.50
2018-05-23T09:50:25.464Z,483.75
2018-05-23T09:51:46.492Z,472.50
2018-05-23T09:52:25.495Z,483.75
2018-05-23T09:53:25.510Z,528.75
2018-05-23T09:54:25.530Z,511.88
2018-05-23T09:55:25.546Z,461.25
2018-05-23T09:56:25.548Z,433.13
2018-05-23T09:57:46.593Z,438.75
2018-05-23T09:58:25.586Z,444.38
2018-05-23T09:59:25.635Z,438.75
2018-05-23T10:00:25.605Z,416.25
2018-05-23T10:01:25.729Z,438.75
2018-05-23T10:02:25.649Z,495.00
2018-05-23T10:03:46.668Z,489.38
2018-05-23T10:04:25.677Z,528.75
2018-05-23T10:05:25.686Z,523.13
2018-05-23T10:06:25.719Z,551.25
2018-05-23T10:07:25.717Z,556.88
2018-05-23T10:08:25.740Z,590.63
2018-05-23T10:09:46.763Z,579.38
2018-05-23T10:10:25.763Z,573.75
2018-05-23T10:11:25.779Z,585.00
2018-05-23T10:12:25.788Z,596.25
2018-05-23T10:13:25.809Z,528.75
2018-05-23T10:14:25.825Z,489.38
2018-05-23T10:15:46.852Z,483.75
2018-05-23T10:16:25.860Z,478.13
2018-05-23T10:17:25.871Z,472.50
2018-05-23T10:18:25.890Z,450.00
2018-05-23T10:19:25.907Z,427.50
2018-05-23T10:20:25.939Z,444.38
2018-05-23T10:21:46.958Z,450.00
2018-05-23T10:22:25.944Z,421.88
2018-05-23T10:23:25.966Z,433.13
2018-05-23T10:24:25.977Z,433.13
2018-05-23T10:25:25.992Z,506.25
2018-05-23T10:26:26.106Z,523.13
2018-05-23T10:27:47.030Z,506.25
2018-05-23T10:28:26.767Z,489.38
2018-05-23T10:29:26.053Z,433.13
2018-05-23T10:30:26.068Z,393.75
2018-05-23T10:31:26.086Z,326.25
2018-05-23T10:32:26.098Z,264.38
2018-05-23T10:33:47.117Z,225.00
2018-05-23T10:34:26.144Z,213.75
2018-05-23T10:35:26.140Z,219.38
2018-05-23T10:36:26.165Z,236.25
2018-05-23T10:37:26.176Z,264.38
2018-05-23T10:38:26.191Z,275.63
2018-05-23T10:39:47.213Z,286.88
2018-05-23T10:40:26.219Z,309.38
2018-05-23T10:41:26.239Z,320.63
2018-05-23T10:42:26.258Z,348.75
2018-05-23T10:43:26.261Z,371.25
2018-05-23T10:44:26.279Z,393.75
2018-05-23T10:45:47.313Z,399.38
2018-05-23T10:46:26.299Z,405.00
2018-05-23T10:47:26.345Z,405.00
2018-05-23T10:48:26.342Z,405.00
2018-05-23T10:49:26.356Z,405.00
2018-05-23T10:50:26.370Z,405.00
2018-05-23T10:51:47.448Z,405.00
2018-05-23T10:52:26.397Z,405.00
2018-05-23T10:53:26.440Z,410.63
2018-05-23T10:54:26.430Z,433.13
2018-05-23T10:55:26.447Z,450.00
2018-05-23T10:56:26.467Z,472.50
2018-05-23T10:57:47.478Z,500.63
2018-05-23T10:58:26.498Z,540.00
2018-05-23T10:59:26.507Z,596.25
2018-05-23T11:00:26.512Z,669.38
2018-05-23T11:01:26.539Z,686.25
2018-05-23T11:02:26.558Z,658.13
2018-05-23T11:03:47.585Z,613.13
2018-05-23T11:04:26.580Z,556.88
2018-05-23T11:05:26.608Z,528.75
2018-05-23T11:06:26.606Z,511.88
2018-05-23T11:07:26.633Z,500.63
2018-05-23T11:08:26.648Z,506.25
2018-05-23T11:09:47.680Z,517.50
2018-05-23T11:10:26.675Z,551.25
2018-05-23T11:11:26.696Z,590.63
2018-05-23T11:12:26.698Z,641.25
2018-05-23T11:13:26.711Z,725.63
2018-05-23T11:14:26.742Z,753.75
2018-05-23T11:15:47.769Z,748.13
2018-05-23T11:16:26.765Z,753.75
2018-05-23T11:17:26.778Z,798.75
2018-05-23T11:18:26.797Z,742.50
2018-05-23T11:19:26.816Z,669.38
2018-05-23T11:20:26.823Z,663.75
2018-05-23T11:21:47.848Z,753.75
2018-05-23T11:22:26.862Z,3245.63
2018-05-23T11:23:26.873Z,3335.63
2018-05-23T11:24:26.903Z,3420.00
2018-05-23T11:25:26.906Z,2261.25
2018-05-23T11:26:26.917Z,1181.25
2018-05-23T11:27:47.948Z,978.75
2018-05-23T11:28:26.955Z,3706.88
2018-05-23T11:29:26.969Z,3616.88
2018-05-23T11:30:26.991Z,708.75
2018-05-23T11:31:26.996Z,1608.75
2018-05-23T11:32:27.022Z,2514.38
2018-05-23T11:33:48.049Z,3898.13
2018-05-23T11:34:27.059Z,4168.13
2018-05-23T11:35:27.092Z,4235.63
2018-05-23T11:36:27.093Z,4308.75
2018-05-23T11:37:27.120Z,4376.25
2018-05-23T11:38:27.140Z,4252.50
2018-05-23T11:39:48.217Z,4483.13
2018-05-23T11:40:27.183Z,4426.88
2018-05-23T11:41:27.200Z,4162.50
2018-05-23T11:42:27.218Z,4196.25
2018-05-23T11:43:27.243Z,3819.38
2018-05-23T11:44:27.276Z,3453.75
2018-05-23T11:45:48.315Z,1963.13
2018-05-23T11:46:27.413Z,838.13
2018-05-23T11:47:27.328Z,641.25
2018-05-23T11:48:27.350Z,540.00
2018-05-23T11:49:27.367Z,523.13
2018-05-23T11:50:27.395Z,478.13
2018-05-23T11:51:48.432Z,427.50
2018-05-23T11:52:27.446Z,444.38
2018-05-23T11:53:27.469Z,461.25
2018-05-23T11:54:27.483Z,4398.75
2018-05-23T11:55:27.503Z,4303.13
2018-05-23T11:56:27.518Z,4297.50
2018-05-23T11:57:48.579Z,4421.25
2018-05-23T11:58:27.568Z,4291.88
2018-05-23T11:59:27.578Z,4083.75
2018-05-23T12:00:27.609Z,4010.63
2018-05-23T12:01:27.643Z,3920.63
2018-05-23T12:02:27.655Z,3791.25
2018-05-23T12:03:48.686Z,3791.25
2018-05-23T12:04:27.710Z,3830.63
2018-05-23T12:05:27.721Z,3965.63
2018-05-23T12:06:27.740Z,4038.75
2018-05-23T12:07:27.789Z,3763.13
2018-05-23T12:08:27.794Z,3470.63
2018-05-23T12:09:48.847Z,3858.75
2018-05-23T12:10:27.896Z,4213.13
2018-05-23T12:11:27.873Z,4336.88
2018-05-23T12:12:27.884Z,4348.13
2018-05-23T12:13:27.914Z,4449.38
2018-05-23T12:14:27.951Z,4376.25
2018-05-23T12:15:48.979Z,4426.88
2018-05-23T12:16:27.989Z,4516.88
2018-05-23T12:17:28.020Z,4320.00
2018-05-23T12:18:28.042Z,4398.75
2018-05-23T12:19:28.078Z,3763.13
2018-05-23T12:20:28.089Z,2514.38
2018-05-23T12:21:49.149Z,2244.38
2018-05-23T12:22:28.145Z,1541.25
2018-05-23T12:23:28.176Z,1507.50
2018-05-23T12:24:28.199Z,1125.00
2018-05-23T12:25:28.239Z,2148.75
2018-05-23T12:26:28.248Z,871.88
2018-05-23T12:27:49.295Z,1108.13
2018-05-23T12:28:28.301Z,1023.75
2018-05-23T12:29:28.348Z,1040.63
2018-05-23T12:30:28.364Z,1766.25
2018-05-23T12:31:28.386Z,2334.38
2018-05-23T12:32:28.417Z,2362.50
2018-05-23T12:33:49.449Z,2362.50
2018-05-23T12:34:28.467Z,2368.13
2018-05-23T12:35:28.485Z,2345.63
2018-05-23T12:36:28.503Z,2345.63
2018-05-23T12:37:28.539Z,2401.88
2018-05-23T12:38:28.573Z,2430.00
2018-05-23T12:39:49.607Z,2458.13
2018-05-23T12:40:28.616Z,2171.25
2018-05-23T12:41:28.637Z,1805.63
2018-05-23T12:42:28.677Z,1771.88
2018-05-23T12:43:28.686Z,1788.75
2018-05-23T12:44:28.721Z,2424.38